Time;durP1;ratioP1;P1;durP2;ratioP2;P2;SDS_P1;SDS_P2;PMS_P1;PMS_P2;Temp;Humidity;BMP_temperature;BMP_pressure;BME280_temperature;BME280_humidity;BME280_pressure;Samples;Min_cycle;Max_cycle;Signal;HPM_P1;HPM_P2
2022/07/15 00:00:02;;;;;;;4.70;1.67;;;13.70;99.90;;;;;;5105327;28;20208;-63
2022/07/15 00:02:29;;;;;;;5.23;2.00;;;13.80;99.90;;;;;;5113070;28;20670;-63
2022/07/15 00:04:56;;;;;;;1.90;1.70;;;13.80;99.90;;;;;;5116600;28;20197;-63
2022/07/15 00:07:23;;;;;;;4.00;1.83;;;13.80;99.90;;;;;;5108476;28;20566;-63
2022/07/15 00:12:35;;;;;;;3.53;1.80;;;13.80;99.90;;;;;;5115862;28;20223;-63
2022/07/15 00:15:02;;;;;;;5.07;2.10;;;13.80;99.90;;;;;;5116052;28;20701;-63
2022/07/15 00:17:29;;;;;;;5.00;1.97;;;13.80;99.90;;;;;;5106984;28;20659;-63
2022/07/15 00:19:56;;;;;;;4.37;1.80;;;13.90;99.90;;;;;;5116005;28;20201;-63
2022/07/15 00:22:23;;;;;;;2.90;1.93;;;14.00;99.90;;;;;;5115674;28;20204;-63
2022/07/15 00:24:49;;;;;;;2.83;1.70;;;14.10;99.90;;;;;;5110234;28;20206;-63
2022/07/15 00:27:16;;;;;;;4.17;1.83;;;14.10;99.90;;;;;;5107114;28;20193;-63
2022/07/15 00:29:45;;;;;;;3.73;1.80;;;14.00;99.90;;;;;;5095670;28;20205;-63
2022/07/15 00:32:12;;;;;;;2.20;1.93;;;14.00;99.90;;;;;;5109078;28;20584;-63
2022/07/15 00:34:39;;;;;;;3.60;1.90;;;14.00;99.90;;;;;;5109425;27;20202;-63
2022/07/15 00:37:06;;;;;;;3.27;1.90;;;13.90;99.90;;;;;;5121406;27;20767;-63
2022/07/15 00:39:33;;;;;;;2.30;1.80;;;13.80;99.90;;;;;;5108680;27;20209;-63
2022/07/15 00:42:00;;;;;;;2.40;1.80;;;13.70;99.90;;;;;;5115168;27;20654;-63
2022/07/15 00:44:27;;;;;;;5.00;2.20;;;13.70;99.90;;;;;;5112265;28;20205;-63
2022/07/15 00:46:55;;;;;;;5.13;2.30;;;13.60;99.90;;;;;;5115472;28;20196;-63
2022/07/15 00:49:22;;;;;;;5.90;2.33;;;13.60;99.90;;;;;;5114673;28;20197;-63
2022/07/15 00:51:52;;;;;;;5.23;2.37;;;13.60;99.90;;;;;;5115384;28;20225;-63
2022/07/15 00:54:24;;;;;;;4.97;2.27;;;13.60;99.90;;;;;;5113137;28;20193;-63
2022/07/15 00:56:53;;;;;;;3.47;2.10;;;13.50;99.90;;;;;;5115270;28;20643;-63
2022/07/15 00:59:22;;;;;;;7.03;2.37;;;13.50;99.90;;;;;;5109703;28;20201;-63
2022/07/15 01:01:49;;;;;;;4.83;2.07;;;13.50;99.90;;;;;;5094386;28;20204;-63
2022/07/15 01:04:18;;;;;;;5.53;2.17;;;13.50;99.90;;;;;;5107982;28;20209;-63
2022/07/15 01:06:45;;;;;;;3.00;1.93;;;13.50;99.90;;;;;;5109992;28;20197;-63
2022/07/15 01:09:12;;;;;;;3.23;2.00;;;13.50;99.90;;;;;;5115045;28;20220;-63
2022/07/15 01:11:39;;;;;;;6.67;1.70;;;13.50;99.90;;;;;;5114499;28;20702;-62
2022/07/15 01:14:08;;;;;;;5.73;2.13;;;13.50;99.90;;;;;;5111062;28;20232;-63
2022/07/15 01:16:34;;;;;;;5.03;2.10;;;13.40;99.90;;;;;;5111640;28;20201;-63
2022/07/15 01:19:01;;;;;;;4.17;1.77;;;13.50;99.90;;;;;;5114606;28;20201;-63
2022/07/15 01:21:30;;;;;;;6.13;2.40;;;13.50;99.90;;;;;;5107709;28;20196;-63
2022/07/15 01:23:56;;;;;;;5.27;2.10;;;13.50;99.90;;;;;;5114219;28;20239;-63
2022/07/15 01:26:23;;;;;;;6.20;3.20;;;13.50;99.90;;;;;;5121228;27;20278;-63
2022/07/15 01:28:50;;;;;;;5.43;2.07;;;13.50;99.90;;;;;;5118607;27;20602;-63
2022/07/15 01:31:17;;;;;;;5.73;2.73;;;13.60;99.90;;;;;;5114113;28;20220;-63
2022/07/15 01:33:45;;;;;;;4.17;2.03;;;13.50;99.90;;;;;;5114056;28;20193;-63
2022/07/15 01:36:11;;;;;;;5.80;2.00;;;13.50;99.90;;;;;;5094380;28;20237;-63
2022/07/15 01:38:40;;;;;;;3.17;2.03;;;13.40;99.90;;;;;;5099289;28;20204;-63
2022/07/15 01:41:07;;;;;;;6.20;2.20;;;13.40;99.90;;;;;;5114351;28;20189;-63
2022/07/15 01:43:33;;;;;;;5.90;1.83;;;13.40;99.90;;;;;;5114226;28;20900;-63
2022/07/15 01:46:00;;;;;;;3.27;2.00;;;13.40;99.90;;;;;;5114696;28;20223;-63
2022/07/15 01:51:11;;;;;;;5.97;2.07;;;13.50;99.90;;;;;;5094845;28;20270;-63
2022/07/15 01:53:39;;;;;;;2.70;1.90;;;13.50;99.90;;;;;;5113559;28;20193;-63
2022/07/15 01:56:07;;;;;;;5.70;2.20;;;13.50;99.90;;;;;;5096495;28;20697;-63
2022/07/15 01:58:34;;;;;;;3.47;1.90;;;13.50;99.90;;;;;;5102717;28;20554;-63
2022/07/15 02:01:01;;;;;;;5.23;2.03;;;13.50;99.90;;;;;;5101490;28;20197;-63
2022/07/15 02:03:27;;;;;;;4.87;1.77;;;13.50;99.90;;;;;;5113721;28;20208;-63
2022/07/15 02:05:54;;;;;;;6.47;1.97;;;13.40;99.90;;;;;;5113380;28;20201;-63
2022/07/15 02:08:21;;;;;;;10.07;2.53;;;13.50;99.90;;;;;;5113183;28;20569;-63
2022/07/15 02:10:49;;;;;;;5.83;2.13;;;13.40;99.90;;;;;;5113730;28;20201;-63
2022/07/15 02:13:17;;;;;;;6.87;1.87;;;13.40;99.90;;;;;;5113595;28;20242;-63
2022/07/15 02:15:44;;;;;;;6.07;2.10;;;13.30;99.90;;;;;;5096234;28;20210;-63
2022/07/15 02:18:11;;;;;;;7.20;3.60;;;13.30;99.90;;;;;;5113018;28;20630;-63
2022/07/15 02:20:38;;;;;;;4.93;2.33;;;13.30;99.90;;;;;;5100831;28;20201;-63
2022/07/15 02:23:05;;;;;;;4.30;2.13;;;13.40;99.90;;;;;;5092990;28;20262;-63
2022/07/15 02:25:34;;;;;;;8.23;2.20;;;13.30;99.90;;;;;;5110325;28;20197;-63
2022/07/15 02:28:04;;;;;;;6.57;2.37;;;13.30;99.90;;;;;;5106809;28;20220;-63
2022/07/15 02:30:33;;;;;;;9.03;2.33;;;13.30;99.90;;;;;;5109717;28;20833;-63
2022/07/15 02:33:00;;;;;;;5.97;2.23;;;13.20;99.90;;;;;;5112865;28;20232;-63
2022/07/15 02:35:27;;;;;;;15.17;6.77;;;13.00;99.90;;;;;;5098988;28;20217;-63
2022/07/15 02:37:54;;;;;;;16.47;6.80;;;13.10;99.90;;;;;;5093045;28;20293;-63
2022/07/15 02:40:21;;;;;;;7.70;3.00;;;12.90;99.90;;;;;;5105125;28;20572;-66
2022/07/15 02:42:50;;;;;;;10.47;2.33;;;13.00;99.90;;;;;;5104384;28;20193;-66
2022/07/15 02:45:19;;;;;;;8.83;2.33;;;12.90;99.90;;;;;;5099462;28;20205;-66
2022/07/15 02:47:46;;;;;;;5.30;1.87;;;12.80;99.90;;;;;;5101384;28;20567;-66
2022/07/15 02:50:12;;;;;;;7.00;2.50;;;12.70;99.90;;;;;;5112706;28;20216;-66
2022/07/15 02:52:39;;;;;;;4.83;2.10;;;12.80;99.90;;;;;;5112753;28;20216;-67
2022/07/15 02:55:07;;;;;;;6.73;1.97;;;12.80;99.90;;;;;;5111567;27;20211;-67
2022/07/15 02:57:34;;;;;;;8.57;2.23;;;12.60;99.90;;;;;;5122193;27;20197;-67
2022/07/15 03:00:01;;;;;;;7.23;3.17;;;12.50;99.90;;;;;;5111640;28;20211;-66
2022/07/15 03:02:30;;;;;;;5.23;3.37;;;12.60;99.90;;;;;;5112171;28;20280;-66
2022/07/15 03:04:56;;;;;;;7.17;3.00;;;12.60;99.90;;;;;;5102496;28;20213;-66
2022/07/15 03:07:23;;;;;;;5.00;2.10;;;12.50;99.90;;;;;;5113362;28;20208;-66
2022/07/15 03:09:51;;;;;;;3.33;1.70;;;12.40;99.90;;;;;;5104628;28;20211;-66
2022/07/15 03:12:17;;;;;;;5.83;1.87;;;12.40;99.90;;;;;;5104486;28;20217;-67
2022/07/15 03:14:44;;;;;;;3.80;2.57;;;12.40;99.90;;;;;;5106324;28;20197;-67
2022/07/15 03:17:11;;;;;;;7.23;2.20;;;12.40;99.90;;;;;;5106677;28;20650;-67
2022/07/15 03:19:40;;;;;;;7.47;1.77;;;12.30;99.90;;;;;;5106737;28;20216;-66
2022/07/15 03:22:07;;;;;;;4.90;2.00;;;12.10;99.90;;;;;;5109592;28;20200;-66
2022/07/15 03:24:34;;;;;;;11.03;2.13;;;12.20;99.90;;;;;;5102330;28;20262;-66
2022/07/15 03:27:01;;;;;;;6.27;1.70;;;12.20;99.90;;;;;;5110851;28;20650;-66
2022/07/15 03:29:28;;;;;;;3.00;1.73;;;12.30;99.90;;;;;;5100731;28;20193;-66
2022/07/15 03:31:56;;;;;;;2.93;1.53;;;11.90;99.90;;;;;;5109585;27;20347;-66
2022/07/15 03:34:25;;;;;;;8.73;1.90;;;11.90;99.90;;;;;;5113290;28;20212;-66
2022/07/15 03:36:53;;;;;;;6.07;2.03;;;12.00;99.90;;;;;;5105277;28;20299;-66
2022/07/15 03:39:20;;;;;;;4.93;1.93;;;12.20;99.90;;;;;;5109146;28;20661;-66
2022/07/15 03:41:47;;;;;;;10.80;4.87;;;12.30;99.90;;;;;;5111624;27;20785;-66
2022/07/15 03:44:14;;;;;;;8.37;3.03;;;12.30;99.90;;;;;;5104048;28;20616;-67
2022/07/15 03:46:41;;;;;;;3.37;1.80;;;12.30;99.90;;;;;;5107605;27;20206;-67
2022/07/15 03:49:08;;;;;;;7.80;2.10;;;12.30;99.90;;;;;;5105078;28;20197;-67
2022/07/15 03:51:35;;;;;;;9.03;1.90;;;12.30;99.90;;;;;;5109492;28;20197;-67
2022/07/15 03:54:04;;;;;;;4.27;1.63;;;12.10;99.90;;;;;;5105349;28;20216;-67
2022/07/15 03:56:32;;;;;;;8.37;1.97;;;12.30;99.90;;;;;;5102866;28;20196;-67
2022/07/15 03:58:59;;;;;;;7.27;2.60;;;12.40;99.90;;;;;;5113412;28;20193;-67
2022/07/15 04:01:26;;;;;;;5.97;2.10;;;12.40;99.90;;;;;;5102728;28;20204;-67
2022/07/15 04:03:54;;;;;;;7.00;2.10;;;12.50;99.90;;;;;;5112381;27;20201;-67
2022/07/15 04:06:22;;;;;;;7.03;1.90;;;12.60;99.90;;;;;;5099080;28;20205;-67
2022/07/15 04:08:49;;;;;;;7.40;2.07;;;12.70;99.90;;;;;;5105452;28;20209;-67
2022/07/15 04:11:18;;;;;;;7.43;1.60;;;12.90;99.90;;;;;;5104045;28;20663;-67
2022/07/15 04:13:46;;;;;;;2.50;1.93;;;13.80;99.90;;;;;;5108312;28;20225;-67
2022/07/15 04:16:14;;;;;;;6.20;1.70;;;13.60;99.90;;;;;;5105197;28;20208;-67
2022/07/15 04:18:40;;;;;;;6.30;2.23;;;13.20;99.90;;;;;;5105382;28;20593;-67
2022/07/15 04:21:07;;;;;;;5.77;1.80;;;13.20;99.90;;;;;;5106965;28;20212;-67
2022/07/15 04:23:34;;;;;;;7.37;2.23;;;13.20;99.90;;;;;;5106354;28;20221;-67
2022/07/15 04:26:01;;;;;;;6.23;1.83;;;13.60;99.90;;;;;;5100110;28;20212;-67
2022/07/15 04:28:29;;;;;;;7.03;2.10;;;13.90;99.90;;;;;;5105579;27;20209;-67
2022/07/15 04:30:56;;;;;;;4.70;1.67;;;14.30;99.90;;;;;;5105923;28;20197;-67
2022/07/15 04:33:23;;;;;;;6.77;1.80;;;13.60;99.90;;;;;;5099814;28;20225;-67
2022/07/15 04:35:50;;;;;;;6.20;2.10;;;13.50;99.90;;;;;;5104497;28;20647;-67
2022/07/15 04:38:17;;;;;;;5.90;1.87;;;13.30;99.90;;;;;;5101849;27;20213;-67
2022/07/15 04:40:44;;;;;;;5.87;1.77;;;13.20;99.90;;;;;;5103297;28;20197;-67
2022/07/15 04:43:11;;;;;;;4.60;1.63;;;13.20;99.90;;;;;;5107859;28;20205;-67
2022/07/15 04:45:40;;;;;;;4.13;1.93;;;13.20;99.90;;;;;;5105844;28;20194;-67
2022/07/15 04:50:45;;;;;;;4.20;2.10;;;13.40;99.90;;;;;;5101687;28;20201;-67
2022/07/15 04:50:53;;;;;;;5.93;1.70;;;13.30;99.90;;;;;;5105621;28;20747;-67
2022/07/15 04:53:21;;;;;;;4.23;1.83;;;13.20;99.90;;;;;;5106146;28;20237;-67
2022/07/15 04:55:48;;;;;;;4.53;1.70;;;13.30;99.90;;;;;;5109075;27;20208;-67
2022/07/15 04:58:15;;;;;;;11.83;2.57;;;13.60;99.90;;;;;;5102887;28;20544;-67
2022/07/15 05:00:44;;;;;;;7.10;2.40;;;13.80;99.90;;;;;;5099229;28;20197;-67
2022/07/15 05:03:11;;;;;;;5.70;1.80;;;13.60;99.90;;;;;;5104626;28;20197;-67
2022/07/15 05:05:38;;;;;;;5.27;2.10;;;13.50;99.90;;;;;;5099863;28;20572;-67
2022/07/15 05:08:06;;;;;;;2.47;1.60;;;13.30;99.90;;;;;;5101551;28;20198;-67
2022/07/15 05:10:33;;;;;;;5.73;1.70;;;13.30;99.90;;;;;;5104796;27;20208;-67
2022/07/15 05:13:00;;;;;;;6.17;1.90;;;13.60;99.90;;;;;;5101598;28;20229;-67
2022/07/15 05:15:27;;;;;;;8.23;1.60;;;13.70;99.90;;;;;;5107057;28;20554;-67
2022/07/15 05:17:55;;;;;;;5.37;1.70;;;13.50;99.90;;;;;;5106811;28;20678;-67
2022/07/15 05:20:22;;;;;;;12.33;3.80;;;13.60;99.90;;;;;;5106713;28;20209;-67
2022/07/15 05:22:49;;;;;;;4.93;2.13;;;14.00;99.90;;;;;;5106668;28;20716;-67
2022/07/15 05:25:16;;;;;;;8.03;2.10;;;14.10;99.90;;;;;;5101362;28;20245;-67
2022/07/15 05:27:44;;;;;;;7.57;1.90;;;14.20;99.90;;;;;;5106149;28;20206;-67
2022/07/15 05:30:15;;;;;;;4.40;1.63;;;14.30;99.90;;;;;;5100087;28;20284;-67
2022/07/15 05:32:42;;;;;;;4.57;2.17;;;14.30;99.90;;;;;;5104296;27;20318;-67
2022/07/15 05:35:14;;;;;;;8.80;2.67;;;14.20;99.90;;;;;;5103202;28;20232;-67
2022/07/15 05:37:42;;;;;;;7.07;1.83;;;14.30;99.90;;;;;;5101776;28;20204;-67
2022/07/15 05:40:10;;;;;;;5.70;1.70;;;14.60;99.90;;;;;;5105846;28;20197;-67
2022/07/15 05:42:38;;;;;;;6.27;2.00;;;14.70;99.90;;;;;;5103119;28;20678;-67
2022/07/15 05:45:05;;;;;;;6.80;2.13;;;14.90;99.90;;;;;;5104522;28;20208;-67
2022/07/15 05:47:32;;;;;;;6.47;1.90;;;15.00;99.90;;;;;;5100127;28;20212;-67
2022/07/15 05:49:59;;;;;;;8.93;1.70;;;15.00;99.90;;;;;;5110324;27;20208;-67
2022/07/15 05:52:27;;;;;;;8.53;2.30;;;15.10;99.90;;;;;;5098987;28;20228;-67
2022/07/15 05:54:54;;;;;;;9.57;2.07;;;15.30;99.90;;;;;;5105298;28;20197;-67
2022/07/15 05:57:21;;;;;;;4.20;1.97;;;15.30;99.90;;;;;;5098895;28;20194;-67
2022/07/15 05:59:48;;;;;;;8.10;1.70;;;15.30;99.90;;;;;;5104148;28;20655;-67
2022/07/15 06:02:14;;;;;;;7.53;1.83;;;15.30;99.90;;;;;;5104765;28;20201;-67
2022/07/15 06:04:42;;;;;;;6.43;1.73;;;15.30;99.90;;;;;;5096173;28;20197;-67
2022/07/15 06:07:08;;;;;;;8.27;2.20;;;15.40;99.90;;;;;;5104451;28;20561;-67
2022/07/15 06:09:37;;;;;;;6.53;1.60;;;15.40;99.90;;;;;;5095645;28;20202;-67
2022/07/15 06:12:04;;;;;;;7.03;1.87;;;15.40;99.90;;;;;;5105148;28;20209;-67
2022/07/15 06:14:31;;;;;;;5.23;1.77;;;15.40;99.90;;;;;;5102507;28;20233;-67
2022/07/15 06:16:57;;;;;;;8.87;1.77;;;15.60;99.90;;;;;;5103710;28;20213;-67
2022/07/15 06:19:24;;;;;;;8.07;2.53;;;15.60;99.90;;;;;;5097763;28;20201;-67
2022/07/15 06:21:51;;;;;;;7.33;2.10;;;15.60;99.90;;;;;;5109178;27;20200;-67
2022/07/15 06:24:19;;;;;;;6.53;1.70;;;15.70;99.90;;;;;;5103255;28;20635;-67
2022/07/15 06:26:47;;;;;;;5.13;1.77;;;15.90;99.90;;;;;;5102099;27;20197;-67
2022/07/15 06:29:14;;;;;;;4.67;1.97;;;16.10;99.90;;;;;;5102510;28;20197;-67
2022/07/15 06:31:41;;;;;;;10.43;2.07;;;16.00;99.90;;;;;;5102973;28;20640;-67
2022/07/15 06:34:07;;;;;;;9.73;1.63;;;15.90;99.90;;;;;;5099263;28;20220;-67
2022/07/15 06:36:34;;;;;;;4.80;1.40;;;16.00;99.90;;;;;;5099050;28;20217;-67
2022/07/15 06:39:01;;;;;;;3.87;1.50;;;16.30;99.90;;;;;;5102390;27;20208;-67
2022/07/15 06:41:28;;;;;;;3.93;1.73;;;16.40;99.90;;;;;;5099217;28;20201;-67
2022/07/15 06:43:56;;;;;;;6.77;1.37;;;16.50;99.90;;;;;;5106859;27;20200;-67
2022/07/15 06:46:23;;;;;;;5.32;1.50;;;16.50;99.90;;;;;;5098579;27;20644;-67
2022/07/15 06:48:50;;;;;;;8.77;1.67;;;16.40;99.90;;;;;;5103945;28;20206;-67
2022/07/15 06:51:17;;;;;;;6.10;1.67;;;16.60;99.90;;;;;;5100963;28;20568;-67
2022/07/15 06:53:43;;;;;;;6.53;1.33;;;16.40;99.90;;;;;;5107536;27;20216;-67
2022/07/15 06:56:10;;;;;;;4.53;1.25;;;16.60;99.90;;;;;;5101932;27;20237;-67
2022/07/15 06:58:37;;;;;;;4.65;1.10;;;16.60;99.90;;;;;;5102445;28;20698;-67
2022/07/15 07:01:06;;;;;;;6.30;1.13;;;16.70;99.90;;;;;;5098233;28;20223;-67
2022/07/15 07:03:33;;;;;;;5.20;1.08;;;16.90;97.80;;;;;;5103063;28;20201;-68
2022/07/15 07:05:59;;;;;;;6.80;1.83;;;16.70;97.30;;;;;;5100584;28;20223;-67
2022/07/15 07:08:27;;;;;;;5.53;1.20;;;17.00;97.70;;;;;;5100858;28;20208;-67
2022/07/15 07:10:54;;;;;;;3.53;1.02;;;17.10;95.00;;;;;;5103636;28;20208;-67
2022/07/15 07:13:21;;;;;;;4.57;1.20;;;17.00;96.50;;;;;;5099621;28;20222;-67
2022/07/15 07:15:48;;;;;;;6.30;1.30;;;17.20;94.70;;;;;;5103618;28;20198;-67
2022/07/15 07:18:16;;;;;;;6.18;1.40;;;17.30;92.60;;;;;;5099913;28;20206;-67
2022/07/15 07:20:43;;;;;;;4.57;1.17;;;17.10;90.40;;;;;;5111073;28;20203;-67
2022/07/15 07:23:10;;;;;;;3.38;1.17;;;17.30;91.30;;;;;;5106899;28;20205;-67
2022/07/15 07:25:37;;;;;;;9.27;1.80;;;17.30;90.00;;;;;;5101127;28;20207;-67
2022/07/15 07:28:04;;;;;;;4.15;1.05;;;17.30;79.30;;;;;;5097982;28;20247;-67
2022/07/15 07:30:32;;;;;;;7.60;1.25;;;17.50;82.60;;;;;;5097282;28;20205;-67
2022/07/15 07:32:59;;;;;;;5.07;1.17;;;17.70;75.50;;;;;;5104473;28;20224;-67
2022/07/15 07:35:27;;;;;;;4.65;0.98;;;17.40;71.70;;;;;;5100075;28;20202;-67
2022/07/15 07:37:54;;;;;;;6.53;1.20;;;17.40;68.80;;;;;;5103270;28;20201;-67
2022/07/15 07:40:22;;;;;;;4.80;0.90;;;17.30;74.20;;;;;;5103841;28;20643;-67
2022/07/15 07:42:48;;;;;;;4.32;1.40;;;17.40;75.50;;;;;;5099177;28;20197;-67
2022/07/15 07:45:15;;;;;;;5.57;0.98;;;17.60;76.20;;;;;;5104391;28;20201;-67
2022/07/15 07:47:43;;;;;;;4.38;1.10;;;17.40;70.60;;;;;;5101918;28;20246;-67
2022/07/15 07:50:10;;;;;;;1.42;0.77;;;17.70;72.20;;;;;;5104939;28;20212;-67
2022/07/15 07:52:39;;;;;;;3.78;0.82;;;17.60;68.90;;;;;;5099529;28;20197;-67
2022/07/15 07:55:06;;;;;;;2.88;1.10;;;17.90;74.50;;;;;;5102587;28;20218;-67
2022/07/15 07:57:34;;;;;;;6.15;1.15;;;17.90;71.60;;;;;;5102747;28;20655;-67
2022/07/15 08:00:01;;;;;;;4.55;1.10;;;17.90;64.40;;;;;;5098359;28;20315;-67
2022/07/15 08:02:28;;;;;;;1.98;0.80;;;17.50;63.50;;;;;;5101159;28;20200;-67
2022/07/15 08:04:55;;;;;;;3.00;0.98;;;17.40;62.80;;;;;;5106896;28;20190;-67
2022/07/15 08:07:23;;;;;;;2.25;1.08;;;17.20;65.50;;;;;;5106408;28;20206;-67
2022/07/15 08:09:51;;;;;;;4.47;0.80;;;17.20;65.50;;;;;;5101850;28;20556;-67
2022/07/15 08:12:18;;;;;;;3.20;0.88;;;17.30;69.10;;;;;;5111057;28;20212;-67
2022/07/15 08:14:45;;;;;;;2.90;0.80;;;17.60;68.00;;;;;;5100548;28;20217;-67
2022/07/15 08:17:12;;;;;;;5.80;1.08;;;17.60;67.00;;;;;;5106576;28;20202;-67
2022/07/15 08:19:39;;;;;;;3.97;0.88;;;17.70;64.90;;;;;;5105011;28;20640;-67
2022/07/15 08:22:06;;;;;;;5.75;1.48;;;17.80;63.00;;;;;;5106445;28;20577;-67
2022/07/15 08:24:32;;;;;;;6.30;1.10;;;17.80;63.50;;;;;;5106708;28;20668;-67
2022/07/15 08:27:01;;;;;;;4.45;2.35;;;18.00;58.30;;;;;;5106454;27;20207;-67
2022/07/15 08:29:28;;;;;;;2.50;1.50;;;17.90;57.30;;;;;;5104702;28;20219;-67
2022/07/15 08:31:55;;;;;;;2.20;0.60;;;17.80;54.90;;;;;;5101595;27;20867;-67
2022/07/15 08:34:21;;;;;;;1.67;0.50;;;18.00;50.20;;;;;;5104752;28;20251;-67
2022/07/15 08:36:48;;;;;;;2.05;0.60;;;18.10;46.20;;;;;;5101356;27;20206;-67
2022/07/15 08:39:16;;;;;;;4.60;0.90;;;18.50;50.00;;;;;;5107261;28;20264;-67
2022/07/15 08:41:42;;;;;;;1.25;0.75;;;18.60;47.50;;;;;;5103910;28;20333;-67
2022/07/15 08:44:11;;;;;;;1.77;0.60;;;18.60;42.10;;;;;;5112934;28;20204;-67
2022/07/15 08:46:41;;;;;;;3.65;0.65;;;18.40;41.20;;;;;;5101729;28;20193;-67
2022/07/15 08:49:14;;;;;;;1.20;0.57;;;18.20;42.40;;;;;;5107329;27;20212;-67
2022/07/15 08:51:44;;;;;;;2.17;0.70;;;18.50;44.60;;;;;;5110654;28;20201;-68
2022/07/15 08:54:11;;;;;;;3.30;0.98;;;18.20;43.10;;;;;;5107637;27;20217;-67
2022/07/15 08:56:38;;;;;;;4.05;0.95;;;18.00;43.10;;;;;;5105985;28;20201;-67
2022/07/15 08:59:07;;;;;;;1.88;0.60;;;17.90;43.70;;;;;;5109759;28;20232;-67
2022/07/15 09:01:42;;;;;;;2.58;0.68;;;17.90;44.10;;;;;;5103497;28;20197;-67
2022/07/15 09:04:09;;;;;;;3.15;0.70;;;17.80;42.20;;;;;;5099699;27;20197;-67
2022/07/15 09:06:38;;;;;;;4.07;0.70;;;17.90;43.90;;;;;;5101935;28;20194;-67
2022/07/15 09:09:25;;;;;;;1.55;0.60;;;17.90;43.30;;;;;;5102115;28;20201;-67
2022/07/15 09:11:57;;;;;;;3.78;0.70;;;18.10;42.70;;;;;;5103049;27;20642;-67
2022/07/15 09:14:27;;;;;;;2.15;0.63;;;18.10;41.30;;;;;;5102558;28;20220;-67
2022/07/15 09:17:06;;;;;;;2.00;0.70;;;18.40;40.00;;;;;;5107706;28;20197;-67
2022/07/15 09:20:01;;;;;;;2.00;0.70;;;18.50;39.40;;;;;;5103976;28;20209;-67
2022/07/15 09:22:31;;;;;;;3.70;1.10;;;18.20;37.60;;;;;;5109985;27;20257;-67
2022/07/15 09:25:07;;;;;;;2.78;0.90;;;18.10;35.00;;;;;;5107090;28;20221;-67
2022/07/15 09:27:36;;;;;;;3.33;0.60;;;18.10;35.80;;;;;;5101161;28;20241;-67
2022/07/15 09:36:03;;;;;;;1.30;0.73;;;18.10;38.80;;;;;;5103250;27;20245;-68
2022/07/15 09:38:35;;;;;;;4.32;1.02;;;18.10;39.00;;;;;;5105865;28;20207;-67
2022/07/15 09:41:03;;;;;;;2.40;0.63;;;18.50;39.40;;;;;;5099283;28;20264;-67
2022/07/15 09:43:31;;;;;;;3.08;0.70;;;18.60;41.50;;;;;;5107214;28;20224;-68
2022/07/15 09:45:59;;;;;;;2.38;0.98;;;18.60;36.80;;;;;;5096551;28;20201;-67
2022/07/15 09:48:29;;;;;;;2.20;0.70;;;19.10;38.30;;;;;;5104381;28;20265;-67
2022/07/15 09:51:00;;;;;;;3.05;0.82;;;19.10;37.10;;;;;;5100373;28;20279;-67
2022/07/15 09:53:28;;;;;;;2.10;0.80;;;19.00;35.60;;;;;;5105039;28;20281;-67
2022/07/15 09:55:55;;;;;;;1.50;0.70;;;19.30;35.20;;;;;;5099368;28;20193;-67
2022/07/15 09:58:22;;;;;;;2.63;0.47;;;19.20;34.40;;;;;;5108013;27;20576;-67
2022/07/15 10:00:51;;;;;;;1.90;0.70;;;19.10;34.90;;;;;;5103389;28;20639;-67
2022/07/15 10:03:18;;;;;;;4.50;0.85;;;18.90;35.70;;;;;;5113785;27;20671;-67
2022/07/15 10:05:48;;;;;;;2.25;0.50;;;19.00;36.40;;;;;;5102104;28;20259;-67
2022/07/15 10:08:17;;;;;;;3.38;0.65;;;18.90;35.90;;;;;;5099217;28;20217;-67
2022/07/15 10:10:44;;;;;;;2.65;1.10;;;18.80;33.90;;;;;;5106726;28;20197;-67
2022/07/15 10:13:26;;;;;;;3.92;0.70;;;19.00;35.90;;;;;;5099739;28;20197;-67
2022/07/15 10:16:02;;;;;;;3.33;0.75;;;18.90;35.70;;;;;;5109371;28;20192;-67
2022/07/15 10:18:45;;;;;;;3.53;1.10;;;18.90;35.20;;;;;;5096949;28;20613;-67
2022/07/15 10:21:25;;;;;;;2.63;0.63;;;19.00;35.60;;;;;;5102832;28;20208;-67
2022/07/15 10:24:11;;;;;;;1.85;0.73;;;19.50;36.80;;;;;;5105639;28;20665;-67
2022/07/15 10:27:03;;;;;;;2.25;1.02;;;19.40;34.90;;;;;;5100910;27;20636;-67
2022/07/15 10:29:31;;;;;;;1.85;0.70;;;19.30;34.10;;;;;;5100269;28;20208;-67
2022/07/15 10:32:00;;;;;;;2.75;0.60;;;19.00;34.80;;;;;;5100773;28;20204;-67
2022/07/15 10:34:31;;;;;;;2.10;0.63;;;18.80;35.60;;;;;;5106045;28;20224;-67
2022/07/15 10:37:06;;;;;;;1.08;0.60;;;18.60;34.20;;;;;;5099070;28;20200;-67
2022/07/15 10:39:52;;;;;;;1.48;0.60;;;18.70;36.40;;;;;;5101675;28;20247;-67
2022/07/15 10:42:20;;;;;;;1.52;0.90;;;18.70;35.80;;;;;;5105098;28;20207;-67
2022/07/15 10:45:06;;;;;;;2.47;0.25;;;19.00;36.60;;;;;;5107917;28;20255;-67
2022/07/15 10:47:33;;;;;;;1.17;0.40;;;19.10;35.30;;;;;;5098024;28;20209;-67
2022/07/15 10:50:01;;;;;;;2.58;0.80;;;19.00;35.00;;;;;;5100735;28;20197;-67
2022/07/15 10:52:31;;;;;;;1.42;0.73;;;19.20;36.00;;;;;;5105386;28;20521;-67
2022/07/15 10:55:04;;;;;;;2.45;0.80;;;19.10;35.00;;;;;;5101713;27;20573;-67
2022/07/15 10:57:55;;;;;;;1.13;0.60;;;19.00;34.90;;;;;;5101769;28;20255;-67
2022/07/15 11:00:31;;;;;;;2.70;0.60;;;19.50;37.10;;;;;;5099755;28;20208;-67
2022/07/15 11:03:04;;;;;;;2.28;1.00;;;19.70;33.90;;;;;;5106156;28;20575;-67
2022/07/15 11:05:31;;;;;;;3.38;0.70;;;19.50;36.00;;;;;;5103743;27;20205;-67
2022/07/15 11:07:59;;;;;;;3.45;0.77;;;19.30;33.30;;;;;;5099329;27;20746;-67
2022/07/15 11:10:26;;;;;;;2.17;1.00;;;19.20;35.30;;;;;;5108491;28;20204;-67
2022/07/15 11:13:05;;;;;;;2.88;0.93;;;19.40;34.30;;;;;;5112488;28;20216;-67
2022/07/15 11:15:32;;;;;;;3.60;0.52;;;19.30;35.60;;;;;;5112931;28;20212;-67
2022/07/15 11:17:59;;;;;;;3.85;1.05;;;19.50;36.00;;;;;;5112661;28;20204;-67
2022/07/15 11:20:30;;;;;;;4.03;0.98;;;19.30;36.30;;;;;;5110446;28;20583;-67
2022/07/15 11:23:00;;;;;;;2.55;0.70;;;19.60;36.20;;;;;;5100763;28;20215;-67
2022/07/15 11:25:29;;;;;;;5.28;0.95;;;19.50;36.00;;;;;;5099514;28;20204;-67
2022/07/15 11:28:07;;;;;;;4.05;0.82;;;19.40;36.70;;;;;;5098649;28;20598;-67
2022/07/15 11:30:37;;;;;;;1.77;0.82;;;19.40;36.60;;;;;;5109852;28;20216;-67
2022/07/15 11:33:07;;;;;;;3.92;0.98;;;19.20;36.70;;;;;;5112484;28;20713;-67
2022/07/15 11:35:44;;;;;;;2.17;0.80;;;19.70;37.40;;;;;;5112257;28;20593;-67
2022/07/15 11:38:12;;;;;;;3.75;0.80;;;20.00;34.10;;;;;;5112737;28;20200;-67
2022/07/15 11:46:15;;;;;;;4.47;0.80;;;20.40;34.00;;;;;;5096002;28;20674;-67
2022/07/15 11:48:42;;;;;;;1.70;0.60;;;20.40;33.30;;;;;;5096927;28;20681;-67
2022/07/15 11:51:10;;;;;;;2.25;0.90;;;20.10;32.20;;;;;;5096398;28;20690;-67
2022/07/15 11:53:41;;;;;;;3.45;1.08;;;20.40;32.90;;;;;;5095784;28;20270;-67
2022/07/15 11:56:10;;;;;;;1.85;0.88;;;20.60;33.00;;;;;;5103558;28;20579;-67
2022/07/15 11:58:39;;;;;;;2.85;1.25;;;20.80;29.60;;;;;;5116670;28;20204;-67
2022/07/15 12:01:08;;;;;;;2.78;1.27;;;20.80;30.70;;;;;;5116709;28;20205;-67
2022/07/15 12:03:37;;;;;;;1.95;0.80;;;21.10;30.40;;;;;;5105577;28;20542;-67
2022/07/15 12:06:06;;;;;;;1.25;0.82;;;21.10;29.90;;;;;;5095951;28;20732;-67
2022/07/15 12:08:40;;;;;;;2.85;1.08;;;21.50;29.00;;;;;;5095204;28;20185;-67
2022/07/15 12:11:15;;;;;;;3.65;0.80;;;21.90;27.10;;;;;;5094644;28;20301;-67
2022/07/15 12:13:44;;;;;;;1.90;0.80;;;22.00;25.70;;;;;;5095985;28;20196;-67
2022/07/15 12:16:12;;;;;;;5.18;1.40;;;21.80;28.20;;;;;;5096070;28;20225;-67
2022/07/15 12:18:40;;;;;;;2.90;1.02;;;21.70;27.00;;;;;;5095688;28;20210;-67
2022/07/15 12:21:07;;;;;;;3.65;0.90;;;21.40;27.50;;;;;;5095578;28;20208;-67
2022/07/15 12:23:34;;;;;;;1.13;0.77;;;21.10;27.70;;;;;;5095765;28;20292;-67
2022/07/15 12:26:08;;;;;;;1.05;0.50;;;21.10;29.20;;;;;;5095441;28;20256;-67
2022/07/15 12:28:36;;;;;;;2.80;0.75;;;21.50;27.10;;;;;;5113078;28;20807;-67
2022/07/15 12:31:03;;;;;;;2.63;0.90;;;21.40;25.30;;;;;;5101393;28;20205;-67
2022/07/15 12:33:35;;;;;;;2.60;0.85;;;21.90;26.80;;;;;;5095192;28;20295;-64
2022/07/15 12:36:17;;;;;;;2.22;0.90;;;22.30;27.10;;;;;;5095573;28;20233;-67
2022/07/15 12:38:44;;;;;;;1.52;0.60;;;21.70;25.50;;;;;;5094212;28;20209;-67
2022/07/15 12:41:24;;;;;;;2.78;0.65;;;21.40;26.80;;;;;;5095400;28;20213;-67
2022/07/15 12:43:54;;;;;;;2.92;1.20;;;21.30;24.70;;;;;;5095548;28;20205;-67
2022/07/15 12:46:21;;;;;;;2.45;0.75;;;20.60;25.20;;;;;;5095246;28;20202;-67
2022/07/15 12:48:50;;;;;;;2.78;0.73;;;20.90;26.10;;;;;;5094896;28;20201;-67
2022/07/15 12:51:18;;;;;;;3.58;1.17;;;20.90;24.50;;;;;;5093999;28;20221;-67
2022/07/15 12:53:45;;;;;;;1.45;0.88;;;20.90;25.60;;;;;;5095350;28;20202;-67
2022/07/15 12:56:14;;;;;;;0.60;0.47;;;20.80;24.70;;;;;;5094718;28;20221;-67
2022/07/15 12:58:41;;;;;;;3.45;0.80;;;20.50;26.10;;;;;;5095505;28;20209;-67
2022/07/15 13:01:10;;;;;;;2.85;0.70;;;20.50;26.20;;;;;;5094858;28;20220;-67
2022/07/15 13:03:37;;;;;;;3.03;1.20;;;20.50;26.40;;;;;;5094961;28;20205;-67
2022/07/15 13:06:04;;;;;;;4.00;1.52;;;20.30;26.80;;;;;;5095130;28;20206;-67
2022/07/15 13:08:33;;;;;;;1.45;0.80;;;20.20;27.50;;;;;;5094596;28;20238;-67